Time;durP1;ratioP1;P1;durP2;ratioP2;P2;SDS_P1;SDS_P2;PMS_P1;PMS_P2;Temp;Humidity;BMP_temperature;BMP_pressure;BME280_temperature;BME280_humidity;BME280_pressure;Samples;Min_cycle;Max_cycle;Signal;HPM_P1;HPM_P2
2021/07/23 00:00:28;;;;;;;;;;;;;;;18.36;59.53;96670.56;5015353;28;19965;-70
2021/07/23 00:02:54;;;;;;;;;;;;;;;18.32;59.62;96669.47;5015127;28;19986;-70
2021/07/23 00:05:20;;;;;;;;;;;;;;;18.27;60.00;96670.28;5015082;28;19961;-70
2021/07/23 00:07:46;;;;;;;;;;;;;;;18.21;59.62;96664.13;5014899;28;20001;-70
2021/07/23 00:10:11;;;;;;;;;;;;;;;18.17;60.38;96672.91;5015270;28;20048;-70
2021/07/23 00:12:37;;;;;;;;;;;;;;;18.10;60.43;96672.31;5015086;28;20076;-70
2021/07/23 00:15:03;;;;;;;;;;;;;;;18.05;60.47;96660.63;5015600;28;20065;-71
2021/07/23 00:17:29;;;;;;;;;;;;;;;18.02;60.63;96663.03;5015097;28;19980;-71
2021/07/23 00:19:56;;;;;;;;;;;;;;;17.96;60.56;96656.88;5015335;28;20322;-70
2021/07/23 00:22:22;;;;;;;;;;;;;;;17.92;60.93;96652.38;5014669;28;19982;-71
2021/07/23 00:24:48;;;;;;;;;;;;;;;17.85;61.01;96650.75;5014100;28;19974;-71
2021/07/23 00:27:15;;;;;;;;;;;;;;;17.81;61.29;96651.50;5014962;28;19974;-70
2021/07/23 00:29:41;;;;;;;;;;;;;;;17.76;61.47;96648.81;5014811;28;19966;-71
2021/07/23 00:32:07;;;;;;;;;;;;;;;17.72;61.48;96651.16;5014905;28;19993;-70
2021/07/23 00:34:33;;;;;;;;;;;;;;;17.70;61.57;96660.44;5014683;28;20627;-70
2021/07/23 00:36:59;;;;;;;;;;;;;;;17.66;61.84;96644.28;5014629;28;19965;-71
2021/07/23 00:39:25;;;;;;;;;;;;;;;17.62;62.20;96643.19;5014369;28;19969;-70
2021/07/23 00:41:51;;;;;;;;;;;;;;;17.59;62.45;96636.53;5014943;28;19994;-71
2021/07/23 00:44:17;;;;;;;;;;;;;;;17.53;62.18;96637.56;5014521;28;20318;-70
2021/07/23 00:46:44;;;;;;;;;;;;;;;17.48;62.34;96642.84;4997171;28;19989;-70
2021/07/23 00:49:09;;;;;;;;;;;;;;;17.44;62.57;96644.41;5014498;28;19973;-70
2021/07/23 00:51:36;;;;;;;;;;;;;;;17.38;62.41;96637.47;5014150;28;19974;-70
2021/07/23 00:54:03;;;;;;;;;;;;;;;17.33;62.69;96640.13;5014263;28;19993;-72
2021/07/23 00:56:30;;;;;;;;;;;;;;;17.28;62.61;96638.22;5014347;28;19970;-70
2021/07/23 00:58:58;;;;;;;;;;;;;;;17.24;63.07;96642.44;5014226;28;20045;-70
2021/07/23 01:01:25;;;;;;;;;;;;;;;17.21;62.79;96643.75;5014370;28;19965;-70
2021/07/23 01:04:02;;;;;;;;;;;;;;;17.20;62.83;96644.81;5013922;28;19965;-71
2021/07/23 01:06:28;;;;;;;;;;;;;;;17.17;63.23;96644.50;5014336;28;19962;-70
2021/07/23 01:08:54;;;;;;;;;;;;;;;17.13;63.50;96646.84;5014206;28;19970;-71
2021/07/23 01:11:22;;;;;;;;;;;;;;;17.10;63.50;96649.25;5014474;28;20450;-70
2021/07/23 01:13:48;;;;;;;;;;;;;;;17.03;63.77;96638.88;5014159;28;20441;-70
2021/07/23 01:16:14;;;;;;;;;;;;;;;16.98;63.88;96636.16;5014349;28;19980;-70
2021/07/23 01:18:41;;;;;;;;;;;;;;;16.93;63.88;96642.22;4996475;28;19973;-71
2021/07/23 01:21:08;;;;;;;;;;;;;;;16.90;64.21;96637.41;5013966;28;19973;-71
2021/07/23 01:23:35;;;;;;;;;;;;;;;16.86;64.02;96632.88;5014193;28;19990;-71
2021/07/23 01:26:02;;;;;;;;;;;;;;;16.81;64.43;96634.44;5013833;28;19966;-71
2021/07/23 01:28:29;;;;;;;;;;;;;;;16.78;64.25;96626.97;5013879;28;19965;-71
2021/07/23 01:30:55;;;;;;;;;;;;;;;16.75;64.63;96632.78;5013969;28;19961;-71
2021/07/23 01:33:21;;;;;;;;;;;;;;;16.72;64.88;96622.69;5013656;28;19966;-71
2021/07/23 01:35:47;;;;;;;;;;;;;;;16.69;64.66;96625.81;5013385;28;20345;-71
2021/07/23 01:38:14;;;;;;;;;;;;;;;16.67;64.67;96619.19;5014019;28;19974;-71
2021/07/23 01:40:40;;;;;;;;;;;;;;;16.65;65.23;96622.09;5013927;28;19962;-70
2021/07/23 01:43:06;;;;;;;;;;;;;;;16.61;65.36;96615.72;5013852;28;19981;-71
2021/07/23 01:45:33;;;;;;;;;;;;;;;16.57;65.41;96615.41;5013964;28;20024;-70
2021/07/23 01:47:58;;;;;;;;;;;;;;;16.53;65.65;96618.84;5013742;28;20337;-71
2021/07/23 01:50:24;;;;;;;;;;;;;;;16.50;65.42;96616.66;4996761;28;20001;-70
2021/07/23 01:52:50;;;;;;;;;;;;;;;16.48;65.26;96605.53;5013522;28;20378;-70
2021/07/23 01:55:16;;;;;;;;;;;;;;;16.46;65.67;96612.94;5013359;28;19993;-70
2021/07/23 01:57:42;;;;;;;;;;;;;;;16.44;65.71;96613.16;5013622;28;19973;-70
2021/07/23 02:00:09;;;;;;;;;;;;;;;16.42;66.16;96604.69;5012466;28;20005;-71
2021/07/23 02:02:35;;;;;;;;;;;;;;;16.39;65.82;96611.28;5013554;28;19986;-71
2021/07/23 02:05:02;;;;;;;;;;;;;;;16.36;65.32;96603.84;4997898;28;19976;-71
2021/07/23 02:07:28;;;;;;;;;;;;;;;16.33;65.50;96606.19;5017372;28;19973;-71
2021/07/23 02:09:54;;;;;;;;;;;;;;;16.31;65.85;96603.00;5017179;28;19965;-71
2021/07/23 02:12:20;;;;;;;;;;;;;;;16.28;66.36;96600.88;5017341;28;20016;-71
2021/07/23 02:14:48;;;;;;;;;;;;;;;16.23;66.06;96594.47;5017373;28;19966;-72
2021/07/23 02:17:15;;;;;;;;;;;;;;;16.21;66.42;96601.03;5017391;28;20057;-71
2021/07/23 02:19:41;;;;;;;;;;;;;;;16.19;66.03;96597.84;5017244;28;19966;-71
2021/07/23 02:22:07;;;;;;;;;;;;;;;16.16;66.53;96593.84;5017305;28;19978;-71
2021/07/23 02:24:32;;;;;;;;;;;;;;;16.14;66.44;96595.94;5017065;28;19994;-71
2021/07/23 02:26:58;;;;;;;;;;;;;;;16.11;67.38;96593.81;5016803;28;20072;-71
2021/07/23 02:29:24;;;;;;;;;;;;;;;16.05;67.34;96583.44;5016121;28;20452;-71
2021/07/23 02:31:50;;;;;;;;;;;;;;;16.00;67.05;96590.28;5016680;28;19965;-71
2021/07/23 02:34:16;;;;;;;;;;;;;;;15.98;67.49;96584.44;5017120;28;20430;-70
2021/07/23 02:36:43;;;;;;;;;;;;;;;15.96;67.64;96589.16;5016603;28;19984;-71
2021/07/23 02:39:09;;;;;;;;;;;;;;;15.93;67.31;96588.84;5017000;28;19973;-70
2021/07/23 02:41:35;;;;;;;;;;;;;;;15.91;67.71;96589.09;5016708;28;19969;-70
2021/07/23 02:44:01;;;;;;;;;;;;;;;15.89;67.65;96585.91;5017033;28;20341;-71
2021/07/23 02:46:27;;;;;;;;;;;;;;;15.88;67.37;96580.88;5016829;28;19970;-70
2021/07/23 02:48:52;;;;;;;;;;;;;;;15.87;67.78;96579.28;5016837;28;20048;-70
2021/07/23 02:51:18;;;;;;;;;;;;;;;15.84;67.87;96583.22;5016965;28;20337;-70
2021/07/23 02:53:44;;;;;;;;;;;;;;;15.82;67.30;96572.09;5016326;28;19989;-70
2021/07/23 02:56:10;;;;;;;;;;;;;;;15.80;67.56;96577.63;5016556;28;19977;-70
2021/07/23 02:58:37;;;;;;;;;;;;;;;15.80;67.75;96576.81;5016370;28;19998;-70
2021/07/23 03:01:04;;;;;;;;;;;;;;;15.78;67.82;96568.34;5016545;28;19970;-70
2021/07/23 03:03:31;;;;;;;;;;;;;;;15.75;68.24;96571.50;5016687;28;20346;-70
2021/07/23 03:05:59;;;;;;;;;;;;;;;15.70;67.77;96568.75;5016265;28;20012;-70
2021/07/23 03:08:25;;;;;;;;;;;;;;;15.69;67.91;96561.88;5016181;28;19974;-73
2021/07/23 03:10:51;;;;;;;;;;;;;;;15.68;68.76;96565.53;5016297;28;19969;-70
2021/07/23 03:13:17;;;;;;;;;;;;;;;15.68;67.66;96566.34;5016032;28;19966;-70
2021/07/23 03:15:43;;;;;;;;;;;;;;;15.71;67.73;96570.34;5015407;28;20009;-70
2021/07/23 03:18:09;;;;;;;;;;;;;;;15.70;67.98;96564.25;5016248;28;20469;-70
2021/07/23 03:20:37;;;;;;;;;;;;;;;15.69;67.73;96561.88;5016164;28;20390;-70
2021/07/23 03:23:03;;;;;;;;;;;;;;;15.68;67.71;96555.75;4998261;28;20438;-70
2021/07/23 03:25:29;;;;;;;;;;;;;;;15.69;67.67;96559.22;5015696;28;19977;-70
2021/07/23 03:27:55;;;;;;;;;;;;;;;15.68;67.94;96565.53;5015860;28;19970;-70
2021/07/23 03:30:20;;;;;;;;;;;;;;;15.65;67.94;96564.19;5015086;28;20016;-70
2021/07/23 03:32:46;;;;;;;;;;;;;;;15.63;68.25;96564.44;5016119;28;19966;-70
2021/07/23 03:35:12;;;;;;;;;;;;;;;15.59;68.11;96562.53;5015478;28;20414;-70
2021/07/23 03:37:38;;;;;;;;;;;;;;;15.56;68.31;96565.66;5015644;28;19992;-70
2021/07/23 03:40:05;;;;;;;;;;;;;;;15.52;68.44;96562.72;5015559;28;19974;-70
2021/07/23 03:42:31;;;;;;;;;;;;;;;15.49;68.91;96554.50;5015560;28;20484;-70
2021/07/23 03:44:57;;;;;;;;;;;;;;;15.44;68.61;96557.88;5015811;28;19962;-70
2021/07/23 03:47:23;;;;;;;;;;;;;;;15.40;69.24;96573.41;5015473;28;20052;-70
2021/07/23 03:49:49;;;;;;;;;;;;;;;15.37;68.53;96570.44;5015430;28;20056;-70
2021/07/23 03:52:15;;;;;;;;;;;;;;;15.37;68.90;96571.28;5015423;28;19974;-70
2021/07/23 03:54:40;;;;;;;;;;;;;;;15.37;69.00;96575.75;5014940;28;19990;-70
2021/07/23 03:57:06;;;;;;;;;;;;;;;15.34;69.06;96569.09;5015189;28;20422;-70
2021/07/23 03:59:33;;;;;;;;;;;;;;;15.33;68.94;96564.88;5015099;28;19973;-70
2021/07/23 04:01:59;;;;;;;;;;;;;;;15.33;69.17;96571.97;5014960;28;19966;-70
2021/07/23 04:04:25;;;;;;;;;;;;;;;15.31;69.41;96563.53;5015891;28;19970;-70
2021/07/23 04:07:08;;;;;;;;;;;;;;;15.31;69.54;96574.09;5014807;28;19966;-70
2021/07/23 04:09:34;;;;;;;;;;;;;;;15.27;69.96;96573.00;5014894;28;19970;-70
2021/07/23 04:12:00;;;;;;;;;;;;;;;15.21;69.48;96564.97;5015234;28;20024;-70
2021/07/23 04:14:26;;;;;;;;;;;;;;;15.20;69.00;96575.78;5014923;28;20001;-70
2021/07/23 04:17:05;;;;;;;;;;;;;;;15.19;68.97;96572.34;5132043;27;20064;-69
2021/07/23 04:19:32;;;;;;;;;;;;;;;15.20;69.70;96581.06;5117046;28;19980;-70
2021/07/23 04:21:58;;;;;;;;;;;;;;;15.18;70.80;96576.06;5104810;28;20486;-70
2021/07/23 04:24:24;;;;;;;;;;;;;;;15.14;70.61;96576.75;5127602;28;20051;-71
2021/07/23 04:26:50;;;;;;;;;;;;;;;15.12;70.44;96577.03;5121794;28;19979;-70
2021/07/23 04:29:16;;;;;;;;;;;;;;;15.12;70.39;96576.19;5121695;28;19968;-70
2021/07/23 04:31:42;;;;;;;;;;;;;;;15.15;70.59;96578.38;5117030;28;19975;-70
2021/07/23 04:34:08;;;;;;;;;;;;;;;15.17;70.57;96574.44;5117114;28;20011;-70
2021/07/23 04:36:35;;;;;;;;;;;;;;;15.22;70.44;96576.34;5122402;28;19988;-70
2021/07/23 04:39:03;;;;;;;;;;;;;;;15.28;70.42;96577.22;5120753;28;19968;-70
2021/07/23 04:41:29;;;;;;;;;;;;;;;15.36;69.80;96576.78;5122231;28;19969;-70
2021/07/23 04:43:56;;;;;;;;;;;;;;;15.46;69.97;96576.94;5104159;28;20056;-70
2021/07/23 04:46:22;;;;;;;;;;;;;;;15.60;69.44;96583.44;5119073;28;20416;-70
2021/07/23 04:48:48;;;;;;;;;;;;;;;15.73;69.40;96584.94;5116891;28;19976;-69
2021/07/23 04:51:14;;;;;;;;;;;;;;;15.88;69.23;96581.69;5124596;28;19978;-69
2021/07/23 04:53:41;;;;;;;;;;;;;;;16.05;70.08;96578.16;5121669;28;20343;-69
2021/07/23 04:56:07;;;;;;;;;;;;;;;16.19;69.07;96580.16;5117511;28;19983;-69
2021/07/23 04:58:33;;;;;;;;;;;;;;;16.37;68.63;96576.31;5116905;28;19973;-70
2021/07/23 05:00:59;;;;;;;;;;;;;;;16.59;68.52;96580.75;5125522;28;20501;-70
2021/07/23 05:03:31;;;;;;;;;;;;;;;16.80;68.22;96587.84;5120563;28;19968;-70
2021/07/23 05:05:58;;;;;;;;;;;;;;;17.03;67.52;96581.38;5118336;28;19976;-70
2021/07/23 05:08:24;;;;;;;;;;;;;;;17.20;67.24;96581.19;5129957;28;20046;-70
2021/07/23 05:10:50;;;;;;;;;;;;;;;17.26;65.78;96587.34;5116040;28;19968;-70
2021/07/23 05:13:16;;;;;;;;;;;;;;;17.37;65.57;96577.56;5120319;28;20485;-71
2021/07/23 05:15:42;;;;;;;;;;;;;;;17.50;65.25;96578.97;5119469;28;20000;-70
2021/07/23 05:18:08;;;;;;;;;;;;;;;17.62;65.27;96574.25;5122469;28;20023;-70
2021/07/23 05:20:34;;;;;;;;;;;;;;;17.77;64.85;96570.84;5121578;28;19999;-70
2021/07/23 05:23:00;;;;;;;;;;;;;;;17.99;64.43;96574.09;5117524;28;19973;-70
2021/07/23 05:25:26;;;;;;;;;;;;;;;18.25;63.75;96574.16;5114527;28;19972;-70
2021/07/23 05:27:52;;;;;;;;;;;;;;;18.52;63.20;96570.44;5108216;28;20474;-70
2021/07/23 05:30:18;;;;;;;;;;;;;;;18.80;62.39;96569.16;5114271;28;20502;-69
2021/07/23 05:32:44;;;;;;;;;;;;;;;19.02;61.58;96563.53;5105386;28;19965;-70
2021/07/23 05:35:10;;;;;;;;;;;;;;;19.26;61.34;96566.41;5105079;28;20008;-69
2021/07/23 05:37:36;;;;;;;;;;;;;;;19.38;60.87;96564.25;5111648;28;20443;-69
2021/07/23 05:40:02;;;;;;;;;;;;;;;19.43;60.32;96558.91;5106787;28;20016;-69
2021/07/23 05:42:28;;;;;;;;;;;;;;;19.59;59.98;96559.66;5102337;28;19975;-69
2021/07/23 05:44:54;;;;;;;;;;;;;;;19.80;60.12;96565.72;5106887;28;20064;-69
2021/07/23 05:47:20;;;;;;;;;;;;;;;20.01;59.49;96558.41;5112986;28;19987;-72
2021/07/23 05:49:46;;;;;;;;;;;;;;;20.27;59.58;96555.56;5107722;28;20442;-69
2021/07/23 05:52:12;;;;;;;;;;;;;;;20.39;58.02;96548.03;5105223;28;20018;-69
2021/07/23 05:54:37;;;;;;;;;;;;;;;20.35;57.83;96544.34;5065378;28;19977;-70
2021/07/23 05:57:03;;;;;;;;;;;;;;;20.53;58.83;96550.84;5104978;28;19964;-70
2021/07/23 05:59:30;;;;;;;;;;;;;;;20.55;57.87;96540.69;5091266;28;19983;-70
2021/07/23 06:01:56;;;;;;;;;;;;;;;20.57;57.79;96543.88;5110317;28;20016;-70
2021/07/23 06:04:22;;;;;;;;;;;;;;;20.61;57.72;96546.81;5104849;28;20016;-69
2021/07/23 06:06:48;;;;;;;;;;;;;;;20.76;57.88;96543.22;5105671;28;19978;-69
2021/07/23 06:09:15;;;;;;;;;;;;;;;20.78;56.81;96533.06;5088523;28;19973;-69
2021/07/23 06:11:41;;;;;;;;;;;;;;;20.84;57.41;96545.28;5106072;28;19963;-69
2021/07/23 06:14:06;;;;;;;;;;;;;;;20.94;56.27;96529.19;5108112;28;19972;-69
2021/07/23 06:16:32;;;;;;;;;;;;;;;21.05;56.16;96525.34;5103363;28;19968;-70
2021/07/23 06:18:59;;;;;;;;;;;;;;;21.12;56.33;96538.31;5104301;28;19977;-70
2021/07/23 06:21:26;;;;;;;;;;;;;;;21.25;56.91;96535.00;5110921;28;20012;-69
2021/07/23 06:23:52;;;;;;;;;;;;;;;21.39;55.87;96526.28;5109072;28;20340;-70
2021/07/23 06:26:18;;;;;;;;;;;;;;;21.60;56.55;96541.00;5101070;28;19972;-69
2021/07/23 06:28:44;;;;;;;;;;;;;;;21.86;55.06;96516.66;5106521;28;19964;-69
2021/07/23 06:31:14;;;;;;;;;;;;;;;21.94;54.82;96512.53;5104410;28;20382;-70
2021/07/23 06:33:40;;;;;;;;;;;;;;;21.98;53.77;96508.97;5105429;28;19980;-69
2021/07/23 06:36:06;;;;;;;;;;;;;;;21.99;53.53;96504.47;5108121;28;19996;-69
2021/07/23 06:38:32;;;;;;;;;;;;;;;21.92;52.65;96496.78;5108673;28;19968;-70
2021/07/23 06:40:58;;;;;;;;;;;;;;;22.11;54.86;96515.47;5104850;28;20015;-69
2021/07/23 06:43:25;;;;;;;;;;;;;;;22.28;53.70;96507.00;5086758;28;19995;-69
2021/07/23 06:45:52;;;;;;;;;;;;;;;22.58;53.95;96516.38;5103219;28;19979;-69
2021/07/23 06:48:18;;;;;;;;;;;;;;;22.72;52.82;96499.56;5111758;28;19972;-70
2021/07/23 06:50:44;;;;;;;;;;;;;;;22.83;52.82;96509.00;5102293;28;20411;-69
2021/07/23 06:53:10;;;;;;;;;;;;;;;22.89;51.81;96502.47;5099860;28;19976;-69
2021/07/23 06:55:36;;;;;;;;;;;;;;;23.01;52.39;96502.00;5088022;28;19980;-69
2021/07/23 06:58:02;;;;;;;;;;;;;;;22.91;52.20;96502.97;5110047;28;20334;-69
2021/07/23 07:00:28;;;;;;;;;;;;;;;23.04;53.09;96512.91;5102731;28;20000;-69
2021/07/23 07:02:54;;;;;;;;;;;;;;;23.15;52.27;96505.47;5102923;28;20336;-69
2021/07/23 07:05:21;;;;;;;;;;;;;;;23.30;52.11;96499.81;5107766;28;19979;-72
2021/07/23 07:07:47;;;;;;;;;;;;;;;23.44;51.80;96489.13;5090464;28;20224;-69
2021/07/23 07:10:13;;;;;;;;;;;;;;;23.58;50.74;96488.28;5097614;28;19998;-69
2021/07/23 07:12:39;;;;;;;;;;;;;;;23.67;51.17;96497.22;5103539;28;20344;-69
2021/07/23 07:15:05;;;;;;;;;;;;;;;23.79;51.20;96500.19;5105626;28;20411;-70
2021/07/23 07:17:31;;;;;;;;;;;;;;;23.95;51.12;96497.94;5104922;28;19989;-69
2021/07/23 07:19:57;;;;;;;;;;;;;;;24.15;50.99;96499.38;5105260;28;19986;-69
2021/07/23 07:22:25;;;;;;;;;;;;;;;24.39;50.48;96492.91;5103016;28;20328;-69
2021/07/23 07:24:51;;;;;;;;;;;;;;;24.59;48.79;96479.03;5102110;28;20356;-71
2021/07/23 07:27:17;;;;;;;;;;;;;;;24.68;48.05;96477.19;5110572;28;20332;-69
2021/07/23 07:29:43;;;;;;;;;;;;;;;24.63;46.23;96468.47;5109943;28;19979;-69
2021/07/23 07:32:09;;;;;;;;;;;;;;;24.36;46.14;96470.19;5099740;28;20014;-69
2021/07/23 07:34:35;;;;;;;;;;;;;;;24.24;49.08;96500.22;5107136;28;19972;-69
2021/07/23 07:37:02;;;;;;;;;;;;;;;24.20;49.96;96507.28;5106700;28;19985;-69
2021/07/23 07:39:28;;;;;;;;;;;;;;;24.14;48.86;96499.69;5107606;28;19995;-70
2021/07/23 07:41:55;;;;;;;;;;;;;;;24.13;48.71;96498.91;5103671;28;19972;-70
2021/07/23 07:44:21;;;;;;;;;;;;;;;24.19;49.47;96496.88;5100494;28;19979;-71
2021/07/23 07:46:47;;;;;;;;;;;;;;;24.06;48.69;96493.94;5102878;28;19973;-71
2021/07/23 07:49:12;;;;;;;;;;;;;;;24.19;49.58;96502.22;5105588;28;20033;-69
2021/07/23 07:51:38;;;;;;;;;;;;;;;24.41;50.30;96501.44;5109707;28;20026;-69
2021/07/23 07:54:04;;;;;;;;;;;;;;;24.61;49.61;96498.28;5103340;28;19972;-69
2021/07/23 07:56:30;;;;;;;;;;;;;;;24.78;48.22;96486.88;5085872;28;19980;-70
2021/07/23 07:58:56;;;;;;;;;;;;;;;24.95;47.47;96485.34;5100273;28;19979;-70
2021/07/23 08:01:22;;;;;;;;;;;;;;;24.92;49.22;96494.78;5108996;28;20068;-70
2021/07/23 08:03:48;;;;;;;;;;;;;;;24.97;47.06;96486.63;5107062;28;20012;-69
2021/07/23 08:06:23;;;;;;;;;;;;;;;25.04;48.43;96492.31;5096986;28;19977;-70
2021/07/23 08:08:49;;;;;;;;;;;;;;;25.08;46.09;96473.72;5088358;28;19972;-69
2021/07/23 08:11:16;;;;;;;;;;;;;;;25.01;48.86;96494.84;5102066;28;19964;-70
2021/07/23 08:13:42;;;;;;;;;;;;;;;24.98;48.71;96500.81;5104558;28;19983;-76
2021/07/23 08:16:09;;;;;;;;;;;;;;;25.14;49.43;96501.22;5099190;28;19996;-77
2021/07/23 08:18:35;;;;;;;;;;;;;;;25.36;48.18;96489.63;5106123;28;19969;-77
2021/07/23 08:21:02;;;;;;;;;;;;;;;25.45;48.64;96488.53;5107600;28;20348;-77
2021/07/23 08:23:28;;;;;;;;;;;;;;;25.37;46.76;96485.84;5085256;28;20394;-77
2021/07/23 08:25:54;;;;;;;;;;;;;;;25.41;47.98;96484.91;5105692;28;19976;-78
2021/07/23 08:28:20;;;;;;;;;;;;;;;25.49;48.38;96488.69;5096672;28;19979;-79
2021/07/23 08:30:46;;;;;;;;;;;;;;;25.49;47.35;96480.63;5085225;28;19964;-78
2021/07/23 08:33:12;;;;;;;;;;;;;;;25.35;47.66;96485.38;5087558;28;20439;-79
2021/07/23 08:35:39;;;;;;;;;;;;;;;25.51;48.18;96483.78;5103584;28;20025;-79
2021/07/23 08:38:05;;;;;;;;;;;;;;;25.72;47.64;96475.91;5100142;28;19968;-78
2021/07/23 08:40:31;;;;;;;;;;;;;;;25.84;47.45;96478.00;5063927;28;20382;-79
2021/07/23 08:42:57;;;;;;;;;;;;;;;26.01;47.36;96478.00;5085568;28;19969;-79
2021/07/23 08:45:23;;;;;;;;;;;;;;;25.97;45.75;96466.31;5104168;28;20381;-79
2021/07/23 08:47:49;;;;;;;;;;;;;;;25.90;46.86;96476.75;5103956;28;20343;-79
2021/07/23 08:50:15;;;;;;;;;;;;;;;26.06;47.52;96482.44;5105441;28;19968;-79
2021/07/23 08:52:45;;;;;;;;;;;;;;;26.29;47.19;96480.34;5106310;28;19973;-79
2021/07/23 08:55:13;;;;;;;;;;;;;;;26.39;46.38;96480.03;5100794;28;19968;-79
2021/07/23 08:57:39;;;;;;;;;;;;;;;26.28;44.08;96462.66;5101843;28;19988;-79
2021/07/23 09:00:06;;;;;;;;;;;;;;;26.38;45.63;96477.69;5098725;28;19978;-79
2021/07/23 09:02:51;;;;;;;;;;;;;;;26.48;43.83;96461.19;5101844;28;19964;-79
2021/07/23 09:05:17;;;;;;;;;;;;;;;26.49;45.25;96474.31;5105237;28;19964;-79
2021/07/23 09:07:43;;;;;;;;;;;;;;;26.38;43.19;96465.03;5089892;28;19972;-79
2021/07/23 09:10:09;;;;;;;;;;;;;;;26.31;40.78;96462.00;5091737;28;20332;-78
2021/07/23 09:12:42;;;;;;;;;;;;;;;26.39;43.58;96479.25;5068305;28;19969;-79
2021/07/23 09:15:18;;;;;;;;;;;;;;;26.49;41.31;96466.25;5102099;28;20360;-79
2021/07/23 09:17:45;;;;;;;;;;;;;;;26.52;40.72;96456.75;5093435;28;19995;-80
2021/07/23 09:20:11;;;;;;;;;;;;;;;26.55;42.77;96483.00;5103800;28;20347;-79
2021/07/23 09:22:43;;;;;;;;;;;;;;;26.61;42.44;96473.69;5084168;28;20348;-79
2021/07/23 09:25:09;;;;;;;;;;;;;;;26.70;43.04;96476.34;5088624;28;20352;-79
2021/07/23 09:27:36;;;;;;;;;;;;;;;26.65;42.47;96474.63;5109827;28;19975;-79
2021/07/23 09:30:05;;;;;;;;;;;;;;;26.54;41.55;96473.34;5104926;28;19975;-79
2021/07/23 09:32:31;;;;;;;;;;;;;;;26.59;41.72;96467.06;5071285;28;20350;-79
2021/07/23 09:35:13;;;;;;;;;;;;;;;26.75;43.21;96475.38;5088496;28;19972;-79
2021/07/23 09:37:55;;;;;;;;;;;;;;;26.88;41.63;96460.94;5104776;28;19995;-79
2021/07/23 09:40:21;;;;;;;;;;;;;;;26.95;41.99;96457.75;5103499;28;19968;-79
2021/07/23 09:42:54;;;;;;;;;;;;;;;27.12;42.62;96457.66;5107897;28;19976;-79
2021/07/23 09:45:30;;;;;;;;;;;;;;;27.31;42.00;96446.50;5106168;28;20335;-78
2021/07/23 09:48:09;;;;;;;;;;;;;;;27.33;39.22;96430.81;5104103;28;19971;-78
2021/07/23 09:50:39;;;;;;;;;;;;;;;27.21;40.57;96447.63;5099721;28;19968;-79
2021/07/23 09:53:13;;;;;;;;;;;;;;;27.26;40.61;96442.09;5070302;28;19973;-79
2021/07/23 09:55:40;;;;;;;;;;;;;;;27.38;40.97;96454.06;5105418;28;19968;-78
2021/07/23 09:58:07;;;;;;;;;;;;;;;27.52;40.06;96438.44;5090384;28;20010;-79
2021/07/23 10:00:36;;;;;;;;;;;;;;;27.35;40.28;96436.66;5101533;28;20339;-78
2021/07/23 10:03:04;;;;;;;;;;;;;;;27.08;39.69;96440.59;5093844;28;20401;-79
2021/07/23 10:05:37;;;;;;;;;;;;;;;27.15;40.87;96448.91;5104110;28;19972;-78
2021/07/23 10:08:05;;;;;;;;;;;;;;;27.36;39.51;96434.75;5068683;28;19972;-79
2021/07/23 10:10:31;;;;;;;;;;;;;;;27.51;38.36;96431.50;5106205;28;20335;-78
2021/07/23 10:12:58;;;;;;;;;;;;;;;27.61;40.76;96441.06;5094159;28;20436;-78
2021/07/23 10:15:24;;;;;;;;;;;;;;;27.78;40.15;96434.75;5089513;28;19996;-78
2021/07/23 10:17:50;;;;;;;;;;;;;;;27.86;38.37;96418.53;5081286;28;20008;-78
2021/07/23 10:20:20;;;;;;;;;;;;;;;27.95;40.22;96426.56;5107670;28;19980;-79
2021/07/23 10:22:53;;;;;;;;;;;;;;;28.02;40.53;96420.63;5086598;28;19964;-79
2021/07/23 10:25:24;;;;;;;;;;;;;;;28.15;39.29;96408.78;5088767;28;19976;-78
2021/07/23 10:27:50;;;;;;;;;;;;;;;28.28;38.20;96402.28;5104218;28;19959;-78
2021/07/23 10:30:28;;;;;;;;;;;;;;;28.38;39.49;96406.47;5079624;28;19968;-79
2021/07/23 10:32:54;;;;;;;;;;;;;;;28.58;39.60;96406.75;5092184;28;19972;-79
2021/07/23 10:35:20;;;;;;;;;;;;;;;28.73;37.81;96398.00;5088679;28;19976;-78
2021/07/23 10:37:50;;;;;;;;;;;;;;;28.81;37.22;96399.00;5084708;28;20385;-78
2021/07/23 10:40:17;;;;;;;;;;;;;;;28.94;38.46;96395.19;5102949;28;19976;-79
2021/07/23 10:42:57;;;;;;;;;;;;;;;29.09;39.38;96396.41;5103484;28;19975;-78
2021/07/23 10:45:38;;;;;;;;;;;;;;;29.24;39.62;96400.38;5099874;28;20100;-79
2021/07/23 10:48:04;;;;;;;;;;;;;;;29.30;38.40;96390.91;5103110;28;19979;-79
2021/07/23 10:50:39;;;;;;;;;;;;;;;29.20;34.97;96377.88;5111107;28;19968;-79
2021/07/23 10:53:41;;;;;;;;;;;;;;;28.99;37.34;96389.56;5088468;28;19968;-78
2021/07/23 10:56:07;;;;;;;;;;;;;;;29.10;38.14;96390.69;5007563;28;19969;-79
2021/07/23 10:58:33;;;;;;;;;;;;;;;29.22;37.62;96379.09;5071087;28;20487;-78
2021/07/23 11:01:01;;;;;;;;;;;;;;;29.27;36.22;96359.97;5074461;28;19976;-79
2021/07/23 11:03:37;;;;;;;;;;;;;;;29.17;35.08;96363.13;5081232;28;19969;-79
2021/07/23 11:06:12;;;;;;;;;;;;;;;28.98;37.44;96366.41;5093298;28;19968;-77
2021/07/23 11:08:44;;;;;;;;;;;;;;;29.00;38.52;96382.22;5101685;28;19987;-77
2021/07/23 11:11:10;;;;;;;;;;;;;;;29.10;37.65;96355.59;5080314;28;19969;-79
2021/07/23 11:13:36;;;;;;;;;;;;;;;28.99;37.33;96357.16;5093565;28;19976;-78
2021/07/23 11:16:15;;;;;;;;;;;;;;;28.86;38.44;96353.69;5085835;28;19996;-78
2021/07/23 11:18:55;;;;;;;;;;;;;;;28.97;37.09;96345.91;5080472;28;20438;-78
2021/07/23 11:21:21;;;;;;;;;;;;;;;29.18;37.91;96353.88;5095620;28;20038;-78
2021/07/23 11:23:48;;;;;;;;;;;;;;;29.42;37.57;96344.13;5066804;28;19968;-78
2021/07/23 11:26:23;;;;;;;;;;;;;;;29.61;39.04;96352.44;5063378;28;19972;-78
2021/07/23 11:28:50;;;;;;;;;;;;;;;29.91;38.59;96344.75;5100090;28;19968;-78
2021/07/23 11:31:39;;;;;;;;;;;;;;;30.15;38.07;96343.84;5103144;28;19972;-78
2021/07/23 11:34:27;;;;;;;;;;;;;;;30.42;38.82;96346.06;5099039;28;19975;-78
2021/07/23 11:36:53;;;;;;;;;;;;;;;30.52;37.40;96332.78;5081139;28;19984;-78
2021/07/23 11:39:25;;;;;;;;;;;;;;;30.60;37.58;96332.97;5083687;28;19973;-78
2021/07/23 11:41:59;;;;;;;;;;;;;;;30.55;38.03;96328.59;5114552;28;19969;-78
2021/07/23 11:44:25;;;;;;;;;;;;;;;30.58;38.34;96333.31;5087078;28;20416;-78
2021/07/23 11:46:51;;;;;;;;;;;;;;;30.69;37.22;96322.72;5099130;28;19973;-78
2021/07/23 11:49:17;;;;;;;;;;;;;;;30.74;36.46;96309.72;5101109;28;19977;-78
2021/07/23 11:51:44;;;;;;;;;;;;;;;30.81;36.81;96311.03;5111123;28;19975;-79
2021/07/23 11:54:10;;;;;;;;;;;;;;;30.88;36.52;96308.50;5076263;28;20340;-79
2021/07/23 11:56:37;;;;;;;;;;;;;;;30.80;35.55;96322.97;5103510;28;19981;-78
2021/07/23 11:59:03;;;;;;;;;;;;;;;30.86;36.58;96335.09;5105682;28;19976;-78
2021/07/23 12:01:36;;;;;;;;;;;;;;;30.81;31.50;96305.59;5067135;28;19967;-78
2021/07/23 12:04:02;;;;;;;;;;;;;;;30.59;30.40;96301.63;5079239;28;19969;-78
2021/07/23 12:06:32;;;;;;;;;;;;;;;30.52;32.88;96315.78;5097232;28;19976;-80
2021/07/23 12:09:00;;;;;;;;;;;;;;;29.95;30.08;96309.72;5083750;28;19969;-78
2021/07/23 12:11:29;;;;;;;;;;;;;;;29.92;33.48;96324.72;5105872;28;19969;-79
2021/07/23 12:13:56;;;;;;;;;;;;;;;29.72;32.63;96309.50;5097925;28;19976;-79
2021/07/23 12:16:22;;;;;;;;;;;;;;;29.74;31.82;96304.53;5088484;28;20067;-79
2021/07/23 12:18:57;;;;;;;;;;;;;;;29.78;33.02;96308.13;5105886;28;19979;-80
2021/07/23 12:21:24;;;;;;;;;;;;;;;30.04;33.77;96299.50;5104965;28;19983;-79
2021/07/23 12:24:00;;;;;;;;;;;;;;;30.27;32.73;96294.28;5103461;28;20409;-79
2021/07/23 12:26:44;;;;;;;;;;;;;;;30.03;30.57;96286.31;5102963;28;20098;-80
2021/07/23 12:29:13;;;;;;;;;;;;;;;29.89;30.12;96278.66;5090996;28;20428;-79
2021/07/23 12:31:39;;;;;;;;;;;;;;;29.93;31.32;96282.25;5079259;28;19983;-80
2021/07/23 12:34:09;;;;;;;;;;;;;;;29.97;32.83;96279.63;5103020;28;19976;-79
2021/07/23 12:36:53;;;;;;;;;;;;;;;30.01;32.61;96285.88;5103785;28;19973;-80
2021/07/23 12:39:23;;;;;;;;;;;;;;;30.22;33.13;96288.34;5089428;28;20486;-79
2021/07/23 12:41:49;;;;;;;;;;;;;;;30.42;32.71;96273.78;5107839;28;19972;-79
2021/07/23 12:44:16;;;;;;;;;;;;;;;30.25;28.70;96255.19;5107657;28;19976;-80
2021/07/23 12:46:43;;;;;;;;;;;;;;;30.07;31.71;96273.69;5106940;28;19968;-80
2021/07/23 12:49:12;;;;;;;;;;;;;;;30.02;33.16;96273.97;5107975;28;19981;-79